createdAt,value
2022-10-10T00:00:59.978Z,6.97
2022-10-10T00:03:27.909Z,8.13
2022-10-10T00:05:55.884Z,6.80
2022-10-10T00:08:23.871Z,9.07
2022-10-10T00:10:51.828Z,12.70
2022-10-10T00:13:19.886Z,7.37
2022-10-10T00:15:49.282Z,9.43
2022-10-10T00:18:17.444Z,17.80
2022-10-10T00:20:45.655Z,12.67
2022-10-10T00:23:13.596Z,12.70
2022-10-10T00:25:41.526Z,7.93
2022-10-10T00:28:09.512Z,8.67
2022-10-10T00:30:37.504Z,9.37
2022-10-10T00:33:06.845Z,11.47
2022-10-10T00:35:34.879Z,7.90
2022-10-10T00:38:02.857Z,9.10
2022-10-10T00:40:30.792Z,8.93
2022-10-10T00:42:58.763Z,10.77
2022-10-10T00:45:32.479Z,7.87
2022-10-10T00:48:03.175Z,9.77
2022-10-10T00:50:32.999Z,12.20
2022-10-10T00:53:00.967Z,6.97
2022-10-10T00:55:28.944Z,8.10
2022-10-10T00:57:56.896Z,8.67
2022-10-10T01:00:24.852Z,8.20
2022-10-10T01:02:53.203Z,8.63
2022-10-10T01:05:21.416Z,7.70
2022-10-10T01:07:50.727Z,12.00
2022-10-10T01:10:19.309Z,10.53
2022-10-10T01:12:54.434Z,9.90
2022-10-10T01:15:26.556Z,10.17
2022-10-10T01:17:56.661Z,12.90
2022-10-10T01:20:58.890Z,8.67
2022-10-10T01:24:12.340Z,8.67
2022-10-10T01:26:59.284Z,8.33
2022-10-10T01:29:30.632Z,7.60
2022-10-10T01:32:03.869Z,10.00
2022-10-10T01:34:34.297Z,9.97
2022-10-10T01:37:05.569Z,12.30
2022-10-10T01:39:40.212Z,20.43
2022-10-10T01:42:09.218Z,9.00
2022-10-10T01:44:38.533Z,10.00
2022-10-10T01:47:06.453Z,12.37
2022-10-10T01:49:35.109Z,14.47
2022-10-10T01:52:08.626Z,11.97
2022-10-10T01:54:40.669Z,12.03
2022-10-10T01:57:17.106Z,12.07
2022-10-10T01:59:50.195Z,16.90
2022-10-10T02:02:23.094Z,10.73
2022-10-10T02:04:52.394Z,18.80
2022-10-10T02:07:22.993Z,12.33
2022-10-10T02:09:50.986Z,17.77
2022-10-10T02:12:18.974Z,13.13
2022-10-10T02:14:49.609Z,19.03
2022-10-10T02:17:17.545Z,17.70
2022-10-10T02:19:49.798Z,12.60
2022-10-10T02:22:17.760Z,13.40
2022-10-10T02:24:45.715Z,12.40
2022-10-10T02:27:17.209Z,10.13
2022-10-10T02:29:45.185Z,28.27
2022-10-10T02:32:16.023Z,10.33
2022-10-10T02:34:46.010Z,11.43
2022-10-10T02:37:14.216Z,20.30
2022-10-10T02:39:43.267Z,21.83
2022-10-10T02:42:11.300Z,14.97
2022-10-10T02:44:39.241Z,12.80
2022-10-10T02:47:07.239Z,15.30
2022-10-10T02:49:36.622Z,18.20
2022-10-10T02:52:04.642Z,13.07
2022-10-10T02:54:32.604Z,14.57
2022-10-10T02:57:00.565Z,13.13
2022-10-10T02:59:28.525Z,14.53
2022-10-10T03:01:56.456Z,14.33
2022-10-10T03:04:24.398Z,18.37
2022-10-10T03:06:54.448Z,19.97
2022-10-10T03:09:22.545Z,18.97
2022-10-10T03:11:50.564Z,17.87
2022-10-10T03:14:18.519Z,19.67
2022-10-10T03:16:46.449Z,20.43
2022-10-10T03:19:14.435Z,13.47
2022-10-10T03:21:42.923Z,22.67
2022-10-10T03:24:12.250Z,33.13
2022-10-10T03:26:40.221Z,20.13
2022-10-10T03:29:08.547Z,20.63
2022-10-10T03:31:36.501Z,14.30
2022-10-10T03:34:04.427Z,19.17
2022-10-10T03:36:32.493Z,26.73
2022-10-10T03:39:00.415Z,27.03
2022-10-10T03:41:29.729Z,19.20
2022-10-10T03:43:57.747Z,18.90
2022-10-10T03:46:25.724Z,22.33
2022-10-10T03:48:53.677Z,24.13
2022-10-10T03:51:21.678Z,21.60
2022-10-10T03:53:49.637Z,17.80
2022-10-10T03:56:17.633Z,16.30
2022-10-10T03:58:46.928Z,20.20
2022-10-10T04:01:14.931Z,21.50
2022-10-10T04:03:42.959Z,28.13
2022-10-10T04:06:10.941Z,26.87
2022-10-10T04:08:39.818Z,23.57
2022-10-10T04:11:07.792Z,30.77
2022-10-10T04:13:35.784Z,28.03
2022-10-10T04:16:05.963Z,27.40
2022-10-10T04:18:33.955Z,24.97
2022-10-10T04:21:03.197Z,23.50
2022-10-10T04:23:31.191Z,24.50
2022-10-10T04:25:59.150Z,25.40
2022-10-10T04:28:27.211Z,27.70
2022-10-10T04:30:56.343Z,19.13
2022-10-10T04:33:25.752Z,28.70
2022-10-10T04:35:53.734Z,20.10
2022-10-10T04:38:22.810Z,18.27
2022-10-10T04:40:51.032Z,20.07
2022-10-10T04:43:18.991Z,29.90
2022-10-10T04:45:46.992Z,25.73
2022-10-10T04:48:14.975Z,28.03
2022-10-10T04:50:44.366Z,22.73
2022-10-10T04:53:12.822Z,34.10
2022-10-10T04:55:40.792Z,22.87
2022-10-10T04:58:08.838Z,24.43
2022-10-10T05:00:36.819Z,28.90
2022-10-10T05:03:05.011Z,22.70
2022-10-10T05:05:33.138Z,31.70
2022-10-10T05:08:02.458Z,22.40
2022-10-10T05:10:30.459Z,17.93
2022-10-10T05:12:58.432Z,24.90
2022-10-10T05:15:27.084Z,14.00
2022-10-10T05:17:55.084Z,32.83
2022-10-10T05:20:23.151Z,17.10
2022-10-10T05:22:51.384Z,16.03
2022-10-10T05:25:20.987Z,21.63
2022-10-10T05:27:48.977Z,19.10
2022-10-10T05:30:17.108Z,25.57
2022-10-10T05:32:45.063Z,19.33
2022-10-10T05:35:13.053Z,13.83
2022-10-10T05:37:41.028Z,14.33
2022-10-10T05:40:10.053Z,10.50
2022-10-10T05:42:39.453Z,9.90
2022-10-10T05:45:08.347Z,16.97
2022-10-10T05:47:36.312Z,11.13
2022-10-10T05:50:04.364Z,9.67
2022-10-10T05:52:32.364Z,8.93
2022-10-10T05:55:00.413Z,13.77
2022-10-10T05:57:28.399Z,13.63
2022-10-10T05:59:57.758Z,10.87
2022-10-10T06:02:25.859Z,13.53
2022-10-10T06:04:53.853Z,9.37
2022-10-10T06:07:22.284Z,11.70
2022-10-10T06:09:50.231Z,16.73
2022-10-10T06:12:19.596Z,11.63
2022-10-10T06:14:47.573Z,11.43
2022-10-10T06:17:16.900Z,13.47
2022-10-10T06:19:44.849Z,12.20
2022-10-10T06:22:12.862Z,11.10
2022-10-10T06:24:40.876Z,7.90
2022-10-10T06:27:08.942Z,12.60
2022-10-10T06:29:36.884Z,11.03
2022-10-10T06:32:04.857Z,9.73
2022-10-10T06:34:34.221Z,12.20
2022-10-10T06:37:02.258Z,8.73
2022-10-10T06:39:30.416Z,12.60
2022-10-10T06:41:58.467Z,8.47
2022-10-10T06:44:26.575Z,11.77
2022-10-10T06:46:54.541Z,12.33
2022-10-10T06:49:22.670Z,8.00
2022-10-10T06:51:51.998Z,10.20
2022-10-10T06:54:20.047Z,9.80
2022-10-10T06:56:48.020Z,10.50
2022-10-10T06:59:15.986Z,11.10
2022-10-10T07:01:43.984Z,10.50
2022-10-10T07:04:12.660Z,8.37
2022-10-10T07:06:40.681Z,19.03
2022-10-10T07:09:10.014Z,8.97
2022-10-10T07:11:38.058Z,10.13
2022-10-10T07:14:06.049Z,9.20
2022-10-10T07:16:34.742Z,14.33
2022-10-10T07:19:02.731Z,12.97
2022-10-10T07:21:30.786Z,9.93
2022-10-10T07:23:58.845Z,10.60
2022-10-10T07:26:31.184Z,7.03
2022-10-10T07:28:59.154Z,9.80
2022-10-10T07:31:27.104Z,10.77
2022-10-10T07:33:55.146Z,12.93
2022-10-10T07:36:23.257Z,18.63
2022-10-10T07:38:52.096Z,6.13
2022-10-10T07:41:20.816Z,11.60
2022-10-10T07:43:51.193Z,15.60
2022-10-10T07:46:20.673Z,11.80
2022-10-10T07:48:49.271Z,9.17
2022-10-10T07:51:17.323Z,6.97
2022-10-10T07:53:45.509Z,11.83
2022-10-10T07:56:13.441Z,6.87
2022-10-10T07:58:41.431Z,11.87
2022-10-10T08:01:11.805Z,9.13
2022-10-10T08:03:39.925Z,6.30
2022-10-10T08:06:09.939Z,9.37
2022-10-10T08:08:44.843Z,7.70
2022-10-10T08:11:18.475Z,9.30
2022-10-10T08:13:46.442Z,8.33
2022-10-10T08:16:16.085Z,13.40
2022-10-10T08:18:44.126Z,9.20
2022-10-10T08:21:13.406Z,13.20
2022-10-10T08:23:41.356Z,10.23
2022-10-10T08:26:10.498Z,17.33
2022-10-10T08:28:38.819Z,5.60
2022-10-10T08:31:07.221Z,9.33
2022-10-10T08:33:36.648Z,7.13
2022-10-10T08:36:08.242Z,6.63
2022-10-10T08:38:36.335Z,10.70
2022-10-10T08:41:08.621Z,8.80
2022-10-10T08:43:40.628Z,10.60
2022-10-10T08:46:11.876Z,9.60
2022-10-10T08:48:41.243Z,10.00
2022-10-10T08:51:11.333Z,11.13
2022-10-10T08:53:41.535Z,7.87
2022-10-10T08:56:09.656Z,8.33
2022-10-10T08:58:39.277Z,15.23
2022-10-10T09:01:18.972Z,8.20
2022-10-10T09:03:49.289Z,8.30
2022-10-10T09:06:39.469Z,8.83
2022-10-10T09:09:10.511Z,9.83
2022-10-10T09:11:46.036Z,18.70
2022-10-10T09:14:20.824Z,7.57
2022-10-10T09:16:51.353Z,9.67
2022-10-10T09:19:27.780Z,8.07
2022-10-10T09:21:56.677Z,7.37
2022-10-10T09:24:26.057Z,15.33
2022-10-10T09:26:55.862Z,7.73
2022-10-10T09:29:28.321Z,10.77
2022-10-10T09:31:57.978Z,7.13
2022-10-10T09:34:32.282Z,8.37
2022-10-10T09:37:02.653Z,14.67
2022-10-10T09:39:35.841Z,5.97
2022-10-10T09:42:05.280Z,10.63
2022-10-10T09:44:33.318Z,13.17
2022-10-10T09:47:01.307Z,9.50
2022-10-10T09:49:30.622Z,11.13
2022-10-10T09:52:17.847Z,10.43
2022-10-10T09:54:47.359Z,10.13
2022-10-10T09:57:15.336Z,14.63
2022-10-10T09:59:44.890Z,11.30
2022-10-10T10:02:17.074Z,8.77
2022-10-10T10:04:46.741Z,5.07
2022-10-10T10:07:20.479Z,11.40
2022-10-10T10:09:49.757Z,7.70
2022-10-10T10:12:18.747Z,6.73
2022-10-10T10:14:47.154Z,6.57
2022-10-10T10:17:16.407Z,14.00
2022-10-10T10:19:46.244Z,5.37
2022-10-10T10:22:26.825Z,7.63
2022-10-10T10:24:55.224Z,7.23
2022-10-10T10:27:23.953Z,5.83
2022-10-10T10:29:52.583Z,10.00
2022-10-10T10:32:38.859Z,5.87
2022-10-10T10:35:26.026Z,6.90
2022-10-10T10:38:01.992Z,5.53
2022-10-10T10:40:33.471Z,13.20
2022-10-10T10:43:39.399Z,8.00
2022-10-10T10:46:16.689Z,9.50
2022-10-10T10:48:46.371Z,8.37
2022-10-10T10:51:23.596Z,26.23
2022-10-10T10:53:54.020Z,5.93
2022-10-10T10:56:25.239Z,5.03
2022-10-10T10:59:30.293Z,6.80
2022-10-10T11:01:58.528Z,4.80
2022-10-10T11:05:22.556Z,6.90
2022-10-10T11:07:50.316Z,5.40
2022-10-10T11:10:21.365Z,8.43
2022-10-10T11:12:55.559Z,10.40
2022-10-10T11:15:26.350Z,6.33
2022-10-10T11:17:58.135Z,6.53
2022-10-10T11:20:28.719Z,4.00
2022-10-10T11:23:05.263Z,5.53
2022-10-10T11:25:38.026Z,4.73
2022-10-10T11:28:07.161Z,9.17
2022-10-10T11:30:36.225Z,11.37
2022-10-10T11:33:07.289Z,7.50
2022-10-10T11:35:36.215Z,3.47
2022-10-10T11:38:07.889Z,5.40
2022-10-10T11:40:54.235Z,10.27
2022-10-10T11:43:26.772Z,4.77
2022-10-10T11:46:01.989Z,3.30
2022-10-10T11:48:36.690Z,3.83
2022-10-10T11:51:07.723Z,10.10
2022-10-10T11:53:39.116Z,4.70
2022-10-10T11:56:14.150Z,4.80
2022-10-10T11:58:43.491Z,4.47
2022-10-10T12:01:16.352Z,3.83
2022-10-10T12:03:44.620Z,4.73
2022-10-10T12:06:18.337Z,6.80
2022-10-10T12:08:49.114Z,5.17
2022-10-10T12:11:18.495Z,5.73
2022-10-10T12:13:47.497Z,9.50
2022-10-10T12:16:17.016Z,4.70
2022-10-10T12:18:46.157Z,4.60
2022-10-10T12:21:15.592Z,12.53
2022-10-10T12:23:53.620Z,4.37
2022-10-10T12:26:22.010Z,6.53
2022-10-10T12:29:00.116Z,6.27
2022-10-10T12:31:35.640Z,4.97
2022-10-10T12:34:31.360Z,4.83
2022-10-10T12:37:07.390Z,6.57
2022-10-10T12:39:40.671Z,6.03
2022-10-10T12:42:28.838Z,5.90
2022-10-10T12:44:56.795Z,5.03
2022-10-10T12:47:59.851Z,5.47
2022-10-10T12:50:23.677Z,3.93
2022-10-10T12:52:53.571Z,6.17
2022-10-10T12:55:24.199Z,16.50
2022-10-10T12:57:52.567Z,5.47
2022-10-10T13:00:21.934Z,5.53
2022-10-10T13:02:51.852Z,4.53
2022-10-10T13:05:21.959Z,4.57
2022-10-10T13:07:49.905Z,4.80
2022-10-10T13:10:23.507Z,4.80
2022-10-10T13:13:01.728Z,12.90
2022-10-10T13:15:29.909Z,4.73
2022-10-10T13:17:58.014Z,4.20
2022-10-10T13:20:32.529Z,7.77
2022-10-10T13:23:00.504Z,6.50
2022-10-10T13:25:29.859Z,5.20
2022-10-10T13:27:57.882Z,4.40
2022-10-10T13:30:26.022Z,5.43
2022-10-10T13:32:54.724Z,10.03
2022-10-10T13:35:23.222Z,4.90
2022-10-10T13:37:56.658Z,4.43
2022-10-10T13:40:24.705Z,10.40
2022-10-10T13:42:54.026Z,12.20
2022-10-10T13:45:33.439Z,6.33
2022-10-10T13:48:23.253Z,21.00
2022-10-10T13:50:56.958Z,13.93
2022-10-10T13:53:31.592Z,5.00
2022-10-10T13:56:00.886Z,7.20
2022-10-10T13:58:32.148Z,13.20
2022-10-10T14:01:01.094Z,4.93
2022-10-10T14:03:29.341Z,12.90
2022-10-10T14:05:57.293Z,11.90
2022-10-10T14:08:27.206Z,7.37
2022-10-10T14:10:59.732Z,10.80
2022-10-10T14:13:27.962Z,7.47
2022-10-10T14:16:09.939Z,20.07
2022-10-10T14:18:37.898Z,6.07
2022-10-10T14:21:06.186Z,6.00
2022-10-10T14:23:34.303Z,15.90
2022-10-10T14:26:02.312Z,9.40
2022-10-10T14:28:31.124Z,5.47
2022-10-10T14:31:01.082Z,3.13
2022-10-10T14:33:29.387Z,3.30
2022-10-10T14:35:57.725Z,3.43
2022-10-10T14:38:25.803Z,6.00
2022-10-10T14:40:53.952Z,8.77
2022-10-10T14:43:23.640Z,4.73
2022-10-10T14:45:52.431Z,4.97
2022-10-10T14:48:21.799Z,17.03
2022-10-10T14:50:51.192Z,11.27
2022-10-10T14:53:19.330Z,11.03
2022-10-10T14:55:47.327Z,6.20
2022-10-10T14:58:16.173Z,5.63
2022-10-10T15:00:44.148Z,4.77
2022-10-10T15:03:12.225Z,6.33
2022-10-10T15:05:41.655Z,4.97
2022-10-10T15:08:09.650Z,6.47
2022-10-10T15:10:37.632Z,5.07
2022-10-10T15:13:05.610Z,5.20
2022-10-10T15:15:33.671Z,7.83
2022-10-10T15:18:01.594Z,3.67
2022-10-10T15:20:31.760Z,8.63
2022-10-10T15:23:01.611Z,4.97
2022-10-10T15:25:33.465Z,4.20
2022-10-10T15:28:01.949Z,11.03
2022-10-10T15:30:29.935Z,10.20
2022-10-10T15:32:57.934Z,12.53
2022-10-10T15:35:26.424Z,5.47
2022-10-10T15:37:55.834Z,6.30
2022-10-10T15:40:25.276Z,8.97
2022-10-10T15:42:53.257Z,5.63
2022-10-10T15:45:43.935Z,3.80
2022-10-10T15:48:09.451Z,9.13
2022-10-10T15:50:39.299Z,17.57
2022-10-10T15:53:07.238Z,4.50
2022-10-10T15:55:41.916Z,4.20
2022-10-10T15:58:09.951Z,5.70
2022-10-10T16:00:38.945Z,3.70
2022-10-10T16:03:06.994Z,4.43
2022-10-10T16:05:37.511Z,7.90
2022-10-10T16:08:05.863Z,6.57
2022-10-10T16:10:39.361Z,6.80
2022-10-10T16:13:07.412Z,9.00
2022-10-10T16:15:35.386Z,9.97
2022-10-10T16:18:03.354Z,4.40
2022-10-10T16:20:31.368Z,4.63
2022-10-10T16:22:59.384Z,8.37
2022-10-10T16:25:27.413Z,7.73
2022-10-10T16:27:56.741Z,10.93
2022-10-10T16:30:24.719Z,6.47
2022-10-10T16:32:52.722Z,8.03
2022-10-10T16:35:20.698Z,39.60
2022-10-10T16:37:48.641Z,9.47
2022-10-10T16:40:16.744Z,10.73
2022-10-10T16:42:44.695Z,10.40
2022-10-10T16:45:14.084Z,13.63
2022-10-10T16:47:42.020Z,9.20
2022-10-10T16:50:10.804Z,10.47
2022-10-10T16:52:38.821Z,6.30
2022-10-10T16:55:07.877Z,12.37
2022-10-10T16:57:36.140Z,9.17
2022-10-10T17:00:04.322Z,5.83
2022-10-10T17:02:33.670Z,11.90
2022-10-10T17:05:01.678Z,6.77
2022-10-10T17:07:29.640Z,11.40
2022-10-10T17:09:57.563Z,10.50
2022-10-10T17:12:25.545Z,8.87
2022-10-10T17:14:53.495Z,10.67
2022-10-10T17:17:22.682Z,5.40
2022-10-10T17:19:52.323Z,9.80
2022-10-10T17:22:20.322Z,7.13
2022-10-10T17:24:48.538Z,7.07
2022-10-10T17:27:16.544Z,4.37
2022-10-10T17:29:44.491Z,7.23
2022-10-10T17:32:12.591Z,7.83
2022-10-10T17:34:40.589Z,5.80
2022-10-10T17:37:10.150Z,11.83
2022-10-10T17:39:38.336Z,11.13
2022-10-10T17:42:06.461Z,6.60
2022-10-10T17:44:40.317Z,9.73
2022-10-10T17:47:11.656Z,10.67
2022-10-10T17:49:44.995Z,11.60
2022-10-10T17:52:18.834Z,4.80
2022-10-10T17:54:48.958Z,7.97
2022-10-10T17:57:16.903Z,6.80
2022-10-10T17:59:44.856Z,7.47
2022-10-10T18:02:15.593Z,7.30
2022-10-10T18:04:43.536Z,9.37
2022-10-10T18:07:13.926Z,10.23
2022-10-10T18:09:41.910Z,6.53
2022-10-10T18:12:09.861Z,5.70
2022-10-10T18:14:37.834Z,10.43
2022-10-10T18:17:05.802Z,10.30
2022-10-10T18:19:34.038Z,7.77
2022-10-10T18:22:03.056Z,10.40
2022-10-10T18:24:32.383Z,6.37
2022-10-10T18:27:00.393Z,8.47
2022-10-10T18:29:28.340Z,12.10
2022-10-10T18:31:56.818Z,4.50
2022-10-10T18:34:24.826Z,6.23
2022-10-10T18:36:52.770Z,7.43
2022-10-10T18:39:20.770Z,6.03
2022-10-10T18:41:50.326Z,9.70
2022-10-10T18:44:18.887Z,6.90
2022-10-10T18:46:47.241Z,6.57
2022-10-10T18:49:15.183Z,5.43
2022-10-10T18:51:43.832Z,9.60
2022-10-10T18:54:13.573Z,6.10
2022-10-10T18:56:41.782Z,7.00
2022-10-10T18:59:13.164Z,6.33
2022-10-10T19:01:41.178Z,6.50
2022-10-10T19:04:10.428Z,6.03
2022-10-10T19:06:38.599Z,12.33
2022-10-10T19:09:07.065Z,7.90
2022-10-10T19:11:36.057Z,13.33
2022-10-10T19:14:04.829Z,8.13
2022-10-10T19:16:34.154Z,8.33
2022-10-10T19:19:02.286Z,9.20
2022-10-10T19:21:31.101Z,10.20
2022-10-10T19:23:59.884Z,12.40
2022-10-10T19:26:27.926Z,8.00
2022-10-10T19:28:55.985Z,9.83
2022-10-10T19:31:23.963Z,6.60
2022-10-10T19:33:53.448Z,7.53
2022-10-10T19:36:21.410Z,5.27
2022-10-10T19:38:49.509Z,8.33
2022-10-10T19:41:17.470Z,5.90
2022-10-10T19:43:48.051Z,7.37
2022-10-10T19:46:16.845Z,7.93
2022-10-10T19:48:44.834Z,8.80
2022-10-10T19:51:14.747Z,17.23
2022-10-10T19:53:43.041Z,9.00
2022-10-10T19:56:13.568Z,8.80
2022-10-10T19:58:41.563Z,12.23
2022-10-10T20:01:09.764Z,12.83
2022-10-10T20:03:37.836Z,11.37
2022-10-10T20:06:06.865Z,8.63
2022-10-10T20:08:36.449Z,8.63
2022-10-10T20:11:04.733Z,12.10
2022-10-10T20:13:32.734Z,15.70
2022-10-10T20:16:01.690Z,11.30
2022-10-10T20:18:29.953Z,13.63
2022-10-10T20:20:57.878Z,15.27
2022-10-10T20:23:26.298Z,9.73
2022-10-10T20:25:55.654Z,13.03
2022-10-10T20:28:23.715Z,13.83
2022-10-10T20:30:52.010Z,10.23
2022-10-10T20:33:20.790Z,17.40
2022-10-10T20:36:02.359Z,10.40
2022-10-10T20:38:30.438Z,14.07
2022-10-10T20:41:05.452Z,17.50
2022-10-10T20:43:33.395Z,12.40
2022-10-10T20:46:05.300Z,14.87
2022-10-10T20:48:33.619Z,14.07
2022-10-10T20:51:08.491Z,9.00
2022-10-10T20:53:36.498Z,13.03
2022-10-10T20:56:07.028Z,8.70
2022-10-10T20:58:36.031Z,12.30
2022-10-10T21:01:08.332Z,9.87
2022-10-10T21:03:36.499Z,11.03
2022-10-10T21:06:08.966Z,10.23
2022-10-10T21:08:37.188Z,8.03
2022-10-10T21:11:07.553Z,13.53
2022-10-10T21:13:35.897Z,9.27
2022-10-10T21:16:06.278Z,28.13
2022-10-10T21:18:34.686Z,16.10
2022-10-10T21:21:02.935Z,11.43
2022-10-10T21:23:31.180Z,14.57
2022-10-10T21:25:59.130Z,12.93
2022-10-10T21:28:28.518Z,14.10
2022-10-10T21:30:57.067Z,11.47
2022-10-10T21:33:24.987Z,9.97
2022-10-10T21:35:53.210Z,16.70
2022-10-10T21:38:21.283Z,22.70
2022-10-10T21:40:49.527Z,12.20
2022-10-10T21:43:17.655Z,13.43
2022-10-10T21:45:47.119Z,10.57
2022-10-10T21:48:15.131Z,23.23
2022-10-10T21:50:43.114Z,11.40
2022-10-10T21:53:11.182Z,10.93
2022-10-10T21:55:39.457Z,13.23
2022-10-10T21:58:07.420Z,10.87
2022-10-10T22:00:35.455Z,15.20
2022-10-10T22:03:04.898Z,9.90
2022-10-10T22:05:32.909Z,17.80
2022-10-10T22:08:00.907Z,8.87
2022-10-10T22:10:28.888Z,12.87
2022-10-10T22:12:57.151Z,13.83
2022-10-10T22:15:25.235Z,11.67
2022-10-10T22:17:53.195Z,11.90
2022-10-10T22:20:22.566Z,9.73
2022-10-10T22:22:50.526Z,13.03
2022-10-10T22:25:19.265Z,14.43
2022-10-10T22:27:47.254Z,10.70
2022-10-10T22:30:15.472Z,18.63
2022-10-10T22:32:43.442Z,11.00
2022-10-10T22:35:11.420Z,13.00
2022-10-10T22:37:40.752Z,14.77
2022-10-10T22:40:09.812Z,14.30
2022-10-10T22:42:37.780Z,9.60
2022-10-10T22:45:06.775Z,13.07
2022-10-10T22:47:34.803Z,9.93
2022-10-10T22:50:02.762Z,13.90
2022-10-10T22:52:30.720Z,14.57
2022-10-10T22:55:00.528Z,19.47
2022-10-10T22:57:28.568Z,15.50
2022-10-10T22:59:56.599Z,18.83
2022-10-10T23:02:24.605Z,12.83
2022-10-10T23:04:52.564Z,11.27
2022-10-10T23:07:20.920Z,11.60
2022-10-10T23:09:48.952Z,12.20
2022-10-10T23:12:18.277Z,8.93
2022-10-10T23:14:46.280Z,8.77
2022-10-10T23:17:14.220Z,9.07
2022-10-10T23:19:42.183Z,12.27
2022-10-10T23:22:10.442Z,24.37
2022-10-10T23:24:38.408Z,12.90
2022-10-10T23:27:06.379Z,7.87
2022-10-10T23:29:35.777Z,9.73
2022-10-10T23:32:03.753Z,12.10
2022-10-10T23:34:31.971Z,11.90
2022-10-10T23:36:59.937Z,7.80
2022-10-10T23:39:27.891Z,10.00
2022-10-10T23:41:55.860Z,14.50
2022-10-10T23:44:23.987Z,8.73
2022-10-10T23:46:53.321Z,18.27
2022-10-10T23:49:21.331Z,9.80
2022-10-10T23:51:49.317Z,8.10
2022-10-10T23:54:17.340Z,9.23
2022-10-10T23:56:45.310Z,10.93
2022-10-10T23:59:13.293Z,11.73
